createdAt,value
2018-11-26T00:01:33.905Z,46.50
2018-11-26T00:04:03.951Z,46.00
2018-11-26T00:06:36.683Z,47.70
2018-11-26T00:09:04.397Z,48.80
2018-11-26T00:11:36.148Z,48.20
2018-11-26T00:14:03.715Z,47.67
2018-11-26T00:16:31.311Z,48.67
2018-11-26T00:18:59.039Z,48.27
2018-11-26T00:21:26.655Z,47.87
2018-11-26T00:23:54.199Z,46.60
2018-11-26T00:26:21.671Z,49.67
2018-11-26T00:28:50.107Z,46.23
2018-11-26T00:31:23.057Z,48.37
2018-11-26T00:33:56.132Z,45.77
2018-11-26T00:36:23.805Z,47.13
2018-11-26T00:38:51.327Z,46.67
2018-11-26T00:41:18.898Z,46.93
2018-11-26T00:43:46.535Z,47.80
2018-11-26T00:46:14.025Z,46.50
2018-11-26T00:48:41.472Z,44.83
2018-11-26T00:51:09.117Z,43.77
2018-11-26T00:53:36.911Z,42.60
2018-11-26T00:56:09.871Z,41.47
2018-11-26T00:58:37.478Z,39.73
2018-11-26T01:01:05.069Z,40.07
2018-11-26T01:03:32.728Z,39.90
2018-11-26T01:06:00.250Z,40.50
2018-11-26T01:08:32.993Z,40.27
2018-11-26T01:11:00.433Z,39.53
2018-11-26T01:13:28.131Z,40.40
2018-11-26T01:15:55.861Z,37.90
2018-11-26T01:18:23.335Z,38.83
2018-11-26T01:20:50.842Z,39.17
2018-11-26T01:23:18.673Z,37.83
2018-11-26T01:25:46.283Z,39.33
2018-11-26T01:28:13.893Z,36.03
2018-11-26T01:30:41.562Z,36.00
2018-11-26T01:33:09.006Z,37.00
2018-11-26T01:35:36.675Z,37.43
2018-11-26T01:38:04.307Z,37.43
2018-11-26T01:40:37.018Z,36.00
2018-11-26T01:43:04.734Z,33.03
2018-11-26T01:45:32.187Z,32.03
2018-11-26T01:47:59.724Z,33.80
2018-11-26T01:50:27.454Z,33.43
2018-11-26T01:52:55.141Z,31.07
2018-11-26T01:55:23.014Z,33.37
2018-11-26T01:57:50.568Z,33.03
2018-11-26T02:00:19.788Z,30.03
2018-11-26T02:02:47.240Z,31.43
2018-11-26T02:05:14.964Z,32.03
2018-11-26T02:07:42.519Z,29.90
2018-11-26T02:10:10.724Z,29.83
2018-11-26T02:12:38.207Z,29.43
2018-11-26T02:15:06.674Z,29.30
2018-11-26T02:17:34.352Z,30.47
2018-11-26T02:20:02.039Z,28.57
2018-11-26T02:22:30.137Z,27.03
2018-11-26T02:24:57.706Z,29.33
2018-11-26T02:27:25.301Z,29.17
2018-11-26T02:29:52.807Z,30.67
2018-11-26T02:32:24.482Z,28.00
2018-11-26T02:34:52.191Z,29.33
2018-11-26T02:37:24.362Z,27.83
2018-11-26T02:39:51.803Z,27.93
2018-11-26T02:42:22.636Z,28.47
2018-11-26T02:45:24.570Z,29.00
2018-11-26T02:47:52.516Z,30.10
2018-11-26T02:50:20.093Z,27.17
2018-11-26T02:52:47.629Z,29.70
2018-11-26T02:55:15.254Z,30.13
2018-11-26T02:57:42.866Z,27.80
2018-11-26T03:00:11.208Z,28.47
2018-11-26T03:02:44.180Z,29.50
2018-11-26T03:05:12.380Z,31.00
2018-11-26T03:07:39.867Z,28.73
2018-11-26T03:10:08.947Z,26.97
2018-11-26T03:12:37.182Z,28.10
2018-11-26T03:15:06.220Z,26.33
2018-11-26T03:17:39.175Z,26.17
2018-11-26T03:20:07.424Z,26.80
2018-11-26T03:22:34.955Z,26.13
2018-11-26T03:25:02.589Z,27.83
2018-11-26T03:27:30.049Z,23.10
2018-11-26T03:29:57.510Z,25.73
2018-11-26T03:32:30.417Z,23.33
2018-11-26T03:34:57.979Z,24.73
2018-11-26T03:37:26.215Z,24.83
2018-11-26T03:39:53.929Z,24.90
2018-11-26T03:42:26.984Z,25.63
2018-11-26T03:44:54.570Z,25.47
2018-11-26T03:47:22.166Z,25.33
2018-11-26T03:49:49.902Z,24.67
2018-11-26T03:52:17.971Z,24.37
2018-11-26T03:54:50.923Z,23.33
2018-11-26T03:57:18.701Z,23.67
2018-11-26T03:59:46.377Z,24.00
2018-11-26T04:02:15.649Z,24.47
2018-11-26T04:04:43.650Z,24.33
2018-11-26T04:07:11.247Z,24.27
2018-11-26T04:09:38.906Z,24.07
2018-11-26T04:12:06.552Z,26.03
2018-11-26T04:14:34.084Z,25.80
2018-11-26T04:17:07.031Z,25.23
2018-11-26T04:19:34.459Z,24.37
2018-11-26T04:22:02.173Z,25.97
2018-11-26T04:24:29.795Z,27.50
2018-11-26T04:26:58.543Z,25.70
2018-11-26T04:29:24.920Z,27.50
2018-11-26T04:31:52.595Z,27.27
2018-11-26T04:34:20.461Z,28.60
2018-11-26T04:36:48.051Z,26.70
2018-11-26T04:39:15.635Z,27.00
2018-11-26T04:41:43.541Z,26.73
2018-11-26T04:44:11.201Z,27.47
2018-11-26T04:46:44.426Z,28.67
2018-11-26T04:49:12.207Z,28.27
2018-11-26T04:51:39.723Z,27.43
2018-11-26T04:54:07.217Z,26.07
2018-11-26T04:56:35.047Z,27.40
2018-11-26T04:59:02.580Z,28.20
2018-11-26T05:01:30.285Z,28.20
2018-11-26T05:03:57.702Z,30.37
2018-11-26T05:06:25.230Z,29.40
2018-11-26T05:08:58.369Z,30.83
2018-11-26T05:11:31.261Z,31.73
2018-11-26T05:13:59.677Z,29.93
2018-11-26T05:16:32.720Z,31.07
2018-11-26T05:19:00.429Z,29.60
2018-11-26T05:21:28.050Z,29.00
2018-11-26T05:23:55.469Z,26.93
2018-11-26T05:26:28.767Z,26.57
2018-11-26T05:28:56.340Z,26.37
2018-11-26T05:31:24.258Z,26.07
2018-11-26T05:33:57.405Z,24.13
2018-11-26T05:36:30.316Z,25.60
2018-11-26T05:38:58.565Z,27.83
2018-11-26T05:41:26.146Z,26.80
2018-11-26T05:43:53.745Z,26.50
2018-11-26T05:46:21.258Z,25.07
2018-11-26T05:48:54.158Z,25.50
2018-11-26T05:51:21.808Z,26.93
2018-11-26T05:53:49.584Z,25.07
2018-11-26T05:56:17.090Z,26.00
2018-11-26T05:58:44.766Z,26.90
2018-11-26T06:01:12.695Z,24.27
2018-11-26T06:03:45.717Z,24.00
2018-11-26T06:06:13.276Z,25.53
2018-11-26T06:08:40.748Z,24.97
2018-11-26T06:11:08.364Z,25.10
2018-11-26T06:13:36.093Z,24.13
2018-11-26T06:16:03.820Z,23.50
2018-11-26T06:18:31.349Z,23.43
2018-11-26T06:20:58.784Z,24.83
2018-11-26T06:23:26.840Z,25.00
2018-11-26T06:25:54.545Z,23.97
2018-11-26T06:28:22.349Z,21.83
2018-11-26T06:30:49.873Z,22.43
2018-11-26T06:33:17.528Z,21.30
2018-11-26T06:35:45.092Z,20.97
2018-11-26T06:38:12.524Z,19.33
2018-11-26T06:40:40.094Z,20.00
2018-11-26T06:43:13.104Z,20.70
2018-11-26T06:45:40.614Z,21.17
2018-11-26T06:48:08.180Z,21.57
2018-11-26T06:50:35.822Z,22.63
2018-11-26T06:53:03.471Z,23.43
2018-11-26T06:55:31.134Z,22.70
2018-11-26T06:57:58.820Z,28.20
2018-11-26T07:00:26.360Z,27.73
2018-11-26T07:02:54.040Z,26.57
2018-11-26T07:05:22.379Z,26.00
2018-11-26T07:07:50.140Z,26.40
2018-11-26T07:10:18.093Z,27.37
2018-11-26T07:12:45.869Z,28.30
2018-11-26T07:15:14.438Z,27.27
2018-11-26T07:17:42.143Z,29.10
2018-11-26T07:20:15.204Z,30.33
2018-11-26T07:22:42.729Z,31.90
2018-11-26T07:25:11.164Z,31.97
2018-11-26T07:27:38.717Z,33.13
2018-11-26T07:30:10.005Z,33.47
2018-11-26T07:32:37.703Z,33.90
2018-11-26T07:35:05.878Z,32.50
2018-11-26T07:37:33.686Z,33.13
2018-11-26T07:40:01.278Z,33.63
2018-11-26T07:42:29.012Z,33.27
2018-11-26T07:44:57.699Z,32.37
2018-11-26T07:47:25.420Z,32.23
2018-11-26T07:49:53.092Z,32.73
2018-11-26T07:52:20.608Z,30.70
2018-11-26T07:54:48.290Z,30.90
2018-11-26T07:57:16.147Z,25.00
2018-11-26T07:59:43.648Z,26.67
2018-11-26T08:02:11.105Z,30.07
2018-11-26T08:04:38.783Z,31.23
2018-11-26T08:07:06.580Z,30.67
2018-11-26T08:09:35.137Z,33.30
2018-11-26T08:12:02.766Z,33.80
2018-11-26T08:14:30.265Z,32.53
2018-11-26T08:16:57.698Z,33.47
2018-11-26T08:19:25.173Z,35.70
2018-11-26T08:21:52.863Z,36.80
2018-11-26T08:24:20.374Z,34.70
2018-11-26T08:26:47.877Z,34.03
2018-11-26T08:29:15.368Z,33.97
2018-11-26T08:31:42.998Z,33.67
2018-11-26T08:34:10.569Z,34.83
2018-11-26T08:36:43.139Z,31.37
2018-11-26T08:39:15.193Z,29.93
2018-11-26T08:41:48.229Z,32.60
2018-11-26T08:44:21.455Z,31.63
2018-11-26T08:46:54.400Z,31.63
2018-11-26T08:49:25.920Z,33.37
2018-11-26T08:51:53.861Z,31.70
2018-11-26T08:54:21.493Z,29.50
2018-11-26T08:56:49.162Z,30.73
2018-11-26T08:59:22.315Z,30.47
2018-11-26T09:01:51.476Z,31.77
2018-11-26T09:04:19.879Z,31.50
2018-11-26T09:06:53.073Z,31.60
2018-11-26T09:09:20.576Z,33.77
2018-11-26T09:11:47.990Z,32.23
2018-11-26T09:14:15.567Z,32.63
2018-11-26T09:16:48.555Z,33.20
2018-11-26T09:19:16.217Z,34.27
2018-11-26T09:21:43.789Z,33.50
2018-11-26T09:24:11.348Z,33.17
2018-11-26T09:26:38.846Z,35.63
2018-11-26T09:29:06.426Z,34.80
2018-11-26T09:31:39.585Z,37.03
2018-11-26T09:34:07.375Z,36.80
2018-11-26T09:36:40.237Z,34.70
2018-11-26T09:39:09.723Z,37.30
2018-11-26T09:41:37.140Z,37.97
2018-11-26T09:44:05.111Z,39.73
2018-11-26T09:46:32.583Z,37.07
2018-11-26T09:49:00.023Z,37.60
2018-11-26T09:51:27.585Z,39.97
2018-11-26T09:53:55.106Z,39.10
2018-11-26T09:56:28.206Z,39.63
2018-11-26T09:58:55.901Z,38.10
2018-11-26T10:01:23.572Z,38.17
2018-11-26T10:03:56.788Z,38.87
2018-11-26T10:06:24.231Z,40.33
2018-11-26T10:08:51.758Z,40.63
2018-11-26T10:11:19.230Z,42.67
2018-11-26T10:13:46.653Z,42.57
2018-11-26T10:16:14.085Z,45.00
2018-11-26T10:18:41.534Z,44.50
2018-11-26T10:21:08.987Z,45.03
2018-11-26T10:23:36.415Z,45.17
2018-11-26T10:26:03.917Z,39.43
2018-11-26T10:28:31.339Z,42.50
2018-11-26T10:30:58.842Z,45.10
2018-11-26T10:33:26.484Z,40.93
2018-11-26T10:35:59.461Z,40.80
2018-11-26T10:38:26.942Z,41.50
2018-11-26T10:40:54.383Z,39.33
2018-11-26T10:43:21.865Z,38.83
2018-11-26T10:45:49.832Z,39.33
2018-11-26T10:48:17.277Z,38.30
2018-11-26T10:50:44.868Z,37.50
2018-11-26T10:53:12.537Z,38.27
2018-11-26T10:55:40.209Z,39.20
2018-11-26T10:58:07.635Z,39.40
2018-11-26T11:00:38.344Z,39.20
2018-11-26T11:03:06.170Z,36.33
2018-11-26T11:05:33.761Z,36.70
2018-11-26T11:08:01.307Z,37.40
2018-11-26T11:10:29.409Z,37.63
2018-11-26T11:12:56.987Z,37.43
2018-11-26T11:15:24.599Z,36.27
2018-11-26T11:17:52.105Z,37.20
2018-11-26T11:20:20.151Z,36.73
2018-11-26T11:22:47.639Z,36.90
2018-11-26T11:25:15.591Z,38.63
2018-11-26T11:27:43.070Z,37.23
2018-11-26T11:30:13.207Z,37.10
2018-11-26T11:32:41.294Z,35.03
2018-11-26T11:35:09.195Z,34.20
2018-11-26T11:37:36.767Z,34.57
2018-11-26T11:40:06.021Z,34.17
2018-11-26T11:42:33.505Z,33.93
2018-11-26T11:45:01.208Z,30.90
2018-11-26T11:47:28.995Z,32.70
2018-11-26T11:49:56.563Z,30.53
2018-11-26T11:52:24.067Z,29.77
2018-11-26T11:54:51.649Z,30.30
2018-11-26T11:57:19.099Z,29.03
2018-11-26T11:59:46.751Z,28.00
2018-11-26T12:02:16.100Z,27.73
2018-11-26T12:04:42.049Z,24.27
2018-11-26T12:07:09.691Z,23.53
2018-11-26T12:09:37.121Z,24.13
2018-11-26T12:12:04.724Z,23.03
2018-11-26T12:14:32.213Z,21.23
2018-11-26T12:16:59.633Z,22.53
2018-11-26T12:19:27.276Z,20.83
2018-11-26T12:21:54.985Z,22.43
2018-11-26T12:24:22.581Z,20.50
2018-11-26T12:26:50.021Z,20.43
2018-11-26T12:29:23.047Z,21.73
2018-11-26T12:31:50.508Z,19.93
2018-11-26T12:34:23.664Z,19.47
2018-11-26T12:36:51.089Z,18.63
2018-11-26T12:39:18.849Z,20.30
2018-11-26T12:41:51.933Z,18.43
2018-11-26T12:44:25.023Z,17.33
2018-11-26T12:46:52.711Z,17.40
2018-11-26T12:49:20.263Z,17.67
2018-11-26T12:51:49.593Z,17.17
2018-11-26T12:54:22.651Z,16.20
2018-11-26T12:56:50.259Z,16.10
2018-11-26T12:59:17.712Z,16.50
2018-11-26T13:01:52.159Z,17.87
2018-11-26T13:04:19.661Z,16.60
2018-11-26T13:06:47.111Z,15.47
2018-11-26T13:09:14.809Z,14.93
2018-11-26T13:11:42.669Z,15.57
2018-11-26T13:14:10.362Z,15.37
2018-11-26T13:16:38.015Z,15.60
2018-11-26T13:19:05.774Z,17.80
2018-11-26T13:21:33.188Z,19.93
2018-11-26T13:24:01.053Z,23.87
2018-11-26T13:26:28.677Z,26.77
2018-11-26T13:28:56.159Z,25.63
2018-11-26T13:31:24.862Z,25.77
2018-11-26T13:33:57.838Z,26.57
2018-11-26T13:36:25.330Z,26.67
2018-11-26T13:38:52.886Z,24.23
2018-11-26T13:41:20.370Z,25.13
2018-11-26T13:43:48.228Z,24.63
2018-11-26T13:46:15.915Z,24.33
2018-11-26T13:48:43.380Z,24.30
2018-11-26T13:51:16.430Z,23.23
2018-11-26T13:53:44.504Z,27.07
2018-11-26T13:56:11.989Z,23.03
2018-11-26T13:58:39.576Z,24.23
2018-11-26T14:01:07.066Z,24.40
2018-11-26T14:03:34.484Z,23.03
2018-11-26T14:06:02.015Z,22.77
2018-11-26T14:08:29.599Z,22.77
2018-11-26T14:11:02.906Z,24.50
2018-11-26T14:13:30.625Z,24.77
2018-11-26T14:15:59.000Z,25.27
2018-11-26T14:18:25.806Z,24.20
2018-11-26T14:20:53.486Z,25.00
2018-11-26T14:23:21.106Z,24.13
2018-11-26T14:25:48.682Z,24.13
2018-11-26T14:28:16.296Z,23.67
2018-11-26T14:30:43.871Z,22.80
2018-11-26T14:33:11.368Z,24.67
2018-11-26T14:35:38.991Z,21.63
2018-11-26T14:38:07.355Z,22.47
2018-11-26T14:40:36.745Z,22.33
2018-11-26T14:43:04.555Z,22.50
2018-11-26T14:45:32.238Z,23.50
2018-11-26T14:47:59.793Z,22.50
2018-11-26T14:50:27.282Z,21.27
2018-11-26T14:52:54.729Z,22.47
2018-11-26T14:55:23.734Z,25.82
2018-11-26T14:57:51.199Z,21.37
2018-11-26T15:00:19.481Z,21.87
2018-11-26T15:02:47.177Z,21.73
2018-11-26T15:05:14.975Z,22.07
2018-11-26T15:07:42.474Z,21.37
2018-11-26T15:10:10.987Z,23.00
2018-11-26T15:12:38.699Z,23.20
2018-11-26T15:15:07.767Z,22.43
2018-11-26T15:17:35.259Z,26.07
2018-11-26T15:20:02.669Z,24.97
2018-11-26T15:22:30.164Z,27.10
2018-11-26T15:24:57.881Z,22.83
2018-11-26T15:27:25.708Z,24.57
2018-11-26T15:29:53.151Z,26.63
2018-11-26T15:32:20.639Z,27.03
2018-11-26T15:34:48.395Z,26.03
2018-11-26T15:37:15.943Z,24.87
2018-11-26T15:39:48.955Z,25.47
2018-11-26T15:42:16.513Z,24.23
2018-11-26T15:44:43.955Z,22.90
2018-11-26T15:47:17.143Z,24.27
2018-11-26T15:49:45.062Z,23.97
2018-11-26T15:52:12.890Z,23.07
2018-11-26T15:54:40.356Z,24.17
2018-11-26T15:57:07.864Z,26.07
2018-11-26T15:59:35.480Z,33.10
2018-11-26T16:02:03.190Z,31.43
2018-11-26T16:04:31.373Z,31.00
2018-11-26T16:06:58.993Z,28.73
2018-11-26T16:09:26.519Z,33.67
2018-11-26T16:11:53.971Z,33.73
2018-11-26T16:14:21.473Z,33.43
2018-11-26T16:16:49.060Z,31.30
2018-11-26T16:19:16.540Z,31.33
2018-11-26T16:21:43.966Z,30.70
2018-11-26T16:24:16.892Z,28.37
2018-11-26T16:26:44.342Z,29.93
2018-11-26T16:29:11.818Z,27.27
2018-11-26T16:31:39.400Z,31.40
2018-11-26T16:34:07.112Z,28.60
2018-11-26T16:36:34.880Z,28.40
2018-11-26T16:39:02.445Z,30.73
2018-11-26T16:41:29.910Z,31.00
2018-11-26T16:43:57.429Z,29.90
2018-11-26T16:46:24.944Z,29.70
2018-11-26T16:48:52.376Z,27.83
2018-11-26T16:51:20.037Z,26.87
2018-11-26T16:53:53.254Z,29.27
2018-11-26T16:56:20.812Z,26.83
2018-11-26T16:58:48.263Z,29.60
2018-11-26T17:01:16.333Z,30.10
2018-11-26T17:03:43.776Z,30.03
2018-11-26T17:06:11.212Z,29.50
2018-11-26T17:08:38.690Z,29.40
2018-11-26T17:11:06.238Z,27.97
2018-11-26T17:13:33.774Z,27.33
2018-11-26T17:16:01.418Z,28.30
2018-11-26T17:18:28.851Z,29.90
2018-11-26T17:20:56.622Z,30.07
2018-11-26T17:23:24.176Z,29.47
2018-11-26T17:25:51.771Z,31.97
2018-11-26T17:28:19.840Z,36.23
2018-11-26T17:30:47.357Z,33.50
2018-11-26T17:33:20.129Z,31.23
2018-11-26T17:35:47.788Z,31.47
2018-11-26T17:38:15.502Z,30.90
2018-11-26T17:40:42.968Z,29.57
2018-11-26T17:43:11.509Z,28.50
2018-11-26T17:45:39.187Z,27.77
2018-11-26T17:48:07.021Z,28.73
2018-11-26T17:50:37.147Z,25.77
2018-11-26T17:53:05.889Z,27.77
2018-11-26T17:55:33.763Z,26.93
2018-11-26T17:58:01.348Z,28.30
2018-11-26T18:00:32.306Z,29.10
2018-11-26T18:03:00.012Z,25.03
2018-11-26T18:05:28.277Z,22.50
2018-11-26T18:07:56.787Z,24.63
2018-11-26T18:10:24.452Z,23.43
2018-11-26T18:12:51.964Z,23.67
2018-11-26T18:15:19.538Z,23.77
2018-11-26T18:17:47.201Z,23.77
2018-11-26T18:20:18.336Z,22.00
2018-11-26T18:22:46.560Z,20.03
2018-11-26T18:25:14.524Z,23.87
2018-11-26T18:28:46.245Z,24.77
2018-11-26T18:31:13.839Z,25.37
2018-11-26T18:33:41.406Z,23.27
2018-11-26T18:36:09.189Z,23.90
2018-11-26T18:38:36.615Z,29.97
2018-11-26T18:41:04.282Z,28.17
2018-11-26T18:43:37.641Z,23.47
2018-11-26T18:46:05.380Z,21.27
2018-11-26T18:48:33.172Z,24.23
2018-11-26T18:51:06.279Z,22.17
2018-11-26T18:53:33.794Z,23.97
2018-11-26T18:56:01.200Z,22.43
2018-11-26T18:58:28.799Z,22.40
2018-11-26T19:00:58.416Z,23.47
2018-11-26T19:03:26.178Z,20.20
2018-11-26T19:05:54.055Z,20.60
2018-11-26T19:08:22.152Z,20.53
2018-11-26T19:10:57.661Z,19.20
2018-11-26T19:13:30.277Z,19.27
2018-11-26T19:16:00.583Z,21.67
2018-11-26T19:18:28.410Z,22.60
2018-11-26T19:20:55.851Z,25.50
2018-11-26T19:23:23.846Z,25.63
2018-11-26T19:25:51.850Z,24.53
2018-11-26T19:28:20.538Z,24.67
2018-11-26T19:30:47.190Z,23.00
2018-11-26T19:33:14.661Z,22.10
2018-11-26T19:35:42.230Z,21.77
2018-11-26T19:38:09.982Z,22.37
2018-11-26T19:40:38.190Z,18.13
2018-11-26T19:43:06.088Z,21.90
2018-11-26T19:45:34.199Z,23.70
2018-11-26T19:48:01.830Z,23.53
2018-11-26T19:50:30.203Z,21.50
2018-11-26T19:52:56.982Z,21.00
2018-11-26T19:55:25.282Z,22.67
2018-11-26T19:57:53.275Z,21.73
2018-11-26T20:00:22.584Z,24.47
2018-11-26T20:02:58.222Z,24.60
2018-11-26T20:05:34.438Z,23.80
2018-11-26T20:08:01.903Z,23.00
2018-11-26T20:10:34.878Z,24.17
2018-11-26T20:13:02.324Z,19.37
2018-11-26T20:18:03.783Z,23.97
2018-11-26T20:20:31.340Z,22.50
2018-11-26T20:22:58.779Z,23.60
2018-11-26T20:25:26.694Z,23.37
2018-11-26T20:27:54.224Z,25.77
2018-11-26T20:30:22.018Z,25.13
2018-11-26T20:32:49.629Z,23.40
2018-11-26T20:35:17.235Z,24.93
2018-11-26T20:37:44.839Z,21.90
2018-11-26T20:40:14.135Z,25.97
2018-11-26T20:42:45.542Z,27.23
2018-11-26T20:45:13.969Z,27.57
2018-11-26T20:47:41.565Z,27.27
2018-11-26T20:50:12.103Z,25.23
2018-11-26T20:52:39.585Z,25.77
2018-11-26T20:55:12.716Z,25.43
2018-11-26T20:57:40.377Z,28.10
2018-11-26T21:00:10.353Z,29.00
2018-11-26T21:02:38.290Z,30.23
2018-11-26T21:05:06.357Z,28.83
2018-11-26T21:07:33.881Z,26.40
2018-11-26T21:10:01.432Z,28.77
2018-11-26T21:12:29.111Z,28.97
2018-11-26T21:14:56.835Z,27.93
2018-11-26T21:17:24.652Z,30.07
2018-11-26T21:19:52.456Z,30.73
2018-11-26T21:22:19.920Z,28.70
2018-11-26T21:24:52.886Z,26.67
2018-11-26T21:27:20.344Z,25.37
2018-11-26T21:29:47.791Z,24.87
2018-11-26T21:32:15.624Z,23.53
2018-11-26T21:34:48.632Z,22.60
2018-11-26T21:37:16.237Z,25.00
2018-11-26T21:39:43.677Z,24.80
2018-11-26T21:42:12.021Z,24.43
2018-11-26T21:44:40.169Z,22.77
2018-11-26T21:47:13.280Z,21.67
2018-11-26T21:49:40.948Z,22.10
2018-11-26T21:52:08.405Z,23.00
2018-11-26T21:54:36.010Z,20.33
2018-11-26T21:57:03.474Z,21.03
2018-11-26T21:59:36.573Z,22.37
2018-11-26T22:02:04.157Z,24.37
2018-11-26T22:04:31.730Z,27.53
2018-11-26T22:06:59.529Z,25.30
2018-11-26T22:09:27.068Z,25.80
2018-11-26T22:11:56.825Z,24.80
2018-11-26T22:14:24.524Z,25.70
2018-11-26T22:16:52.146Z,24.27
2018-11-26T22:19:19.847Z,25.00
2018-11-26T22:21:52.793Z,25.80
2018-11-26T22:24:20.255Z,26.40
2018-11-26T22:26:47.806Z,27.10
2018-11-26T22:29:15.306Z,26.60
2018-11-26T22:31:43.057Z,25.23
2018-11-26T22:34:15.983Z,23.20
2018-11-26T22:36:43.862Z,22.33
2018-11-26T22:39:11.281Z,21.87
2018-11-26T22:41:38.872Z,23.37
2018-11-26T22:44:11.972Z,21.67
2018-11-26T22:46:39.437Z,21.53
2018-11-26T22:49:07.037Z,24.30
2018-11-26T22:51:34.612Z,24.63
2018-11-26T22:54:02.117Z,27.03
2018-11-26T22:56:29.568Z,25.57
2018-11-26T22:58:57.121Z,23.50
2018-11-26T23:01:29.918Z,26.93
2018-11-26T23:03:57.368Z,25.20
2018-11-26T23:06:24.982Z,25.63
2018-11-26T23:08:52.480Z,24.83
2018-11-26T23:11:19.973Z,24.73
2018-11-26T23:13:47.978Z,25.20
2018-11-26T23:16:15.874Z,20.87
2018-11-26T23:18:43.314Z,21.33
2018-11-26T23:21:10.761Z,21.70
2018-11-26T23:23:38.338Z,21.30
2018-11-26T23:26:11.593Z,22.23
2018-11-26T23:28:39.323Z,20.93
2018-11-26T23:31:06.904Z,19.90
2018-11-26T23:33:34.362Z,21.27
2018-11-26T23:36:07.462Z,19.73
2018-11-26T23:38:35.008Z,20.67
2018-11-26T23:41:02.569Z,20.90
2018-11-26T23:43:30.062Z,20.30
2018-11-26T23:45:57.486Z,20.70
2018-11-26T23:48:24.927Z,20.87
2018-11-26T23:50:52.510Z,20.80
2018-11-26T23:53:19.932Z,21.97
2018-11-26T23:55:47.437Z,21.30
2018-11-26T23:58:14.936Z,24.50
